Time;durP1;ratioP1;P1;durP2;ratioP2;P2;SDS_P1;SDS_P2;PMS_P1;PMS_P2;Temp;Humidity;BMP_temperature;BMP_pressure;BME280_temperature;BME280_humidity;BME280_pressure;Samples;Min_cycle;Max_cycle;Signal;HPM_P1;HPM_P2
2022/07/22 00:00:56;;;;;;;9.38;2.28;;;;;;;52.09;8.99;100511.28;5054124;28;20037;-69
2022/07/22 00:03:22;;;;;;;9.02;1.88;;;;;;;52.60;8.08;100507.97;5053833;28;20466;-67
2022/07/22 00:05:49;;;;;;;11.55;2.00;;;;;;;52.80;8.04;100487.69;5054267;28;20395;-67
2022/07/22 00:08:19;;;;;;;9.18;1.60;;;;;;;52.02;8.45;100498.22;5042495;28;20468;-68
2022/07/22 00:10:46;;;;;;;12.75;2.08;;;;;;;52.53;8.29;100484.13;5046597;28;20037;-68
2022/07/22 00:13:13;;;;;;;10.77;2.47;;;;;;;52.53;8.29;100483.34;5046564;28;20022;-65
2022/07/22 00:15:40;;;;;;;11.73;2.05;;;;;;;51.37;9.20;100485.34;5036029;28;20033;-66
2022/07/22 00:18:07;;;;;;;9.65;1.70;;;;;;;51.73;8.49;100476.22;5041181;28;20052;-67
2022/07/22 00:20:35;;;;;;;9.52;1.77;;;;;;;51.21;9.08;100477.75;5048601;28;20462;-68
2022/07/22 00:23:01;;;;;;;4.80;1.65;;;;;;;50.63;9.23;100467.66;5044926;28;20127;-67
2022/07/22 00:25:28;;;;;;;11.18;2.08;;;;;;;51.29;8.95;100459.13;5041055;28;20018;-68
2022/07/22 00:27:55;;;;;;;9.95;1.88;;;;;;;50.86;9.51;100462.31;5041777;28;20462;-69
2022/07/22 00:30:22;;;;;;;5.53;1.75;;;;;;;50.73;9.27;100456.50;5040395;28;20113;-68
2022/07/22 00:32:49;;;;;;;11.57;1.88;;;;;;;50.77;9.71;100454.81;5047305;28;20025;-67
2022/07/22 00:35:18;;;;;;;9.00;2.10;;;;;;;49.46;10.77;100444.09;5045780;28;20025;-66
2022/07/22 00:37:47;;;;;;;7.63;1.92;;;;;;;50.33;9.55;100436.06;5042558;28;20063;-69
2022/07/22 00:40:13;;;;;;;10.18;2.10;;;;;;;50.27;10.32;100434.59;5043845;28;20503;-68
2022/07/22 00:42:40;;;;;;;6.82;2.47;;;;;;;50.00;10.40;100431.59;5046162;28;20032;-69
2022/07/22 00:45:08;;;;;;;12.13;3.25;;;;;;;49.90;9.58;100425.38;5047564;28;20078;-71
2022/07/22 00:47:35;;;;;;;8.95;2.20;;;;;;;49.64;9.67;100427.34;5054931;28;20036;-70
2022/07/22 00:50:03;;;;;;;6.40;1.67;;;;;;;49.31;9.95;100420.66;5048747;28;20053;-67
2022/07/22 00:52:32;;;;;;;10.43;2.22;;;;;;;49.08;9.55;100413.56;5048773;28;20518;-69
2022/07/22 00:54:59;;;;;;;7.97;2.05;;;;;;;49.22;10.11;100410.25;5048584;28;20033;-70
2022/07/22 00:57:27;;;;;;;14.60;2.10;;;;;;;49.10;9.46;100417.47;5044780;28;20120;-70
2022/07/22 00:59:54;;;;;;;11.65;2.33;;;;;;;48.22;10.05;100403.25;5040944;28;20447;-70
2022/07/22 01:02:21;;;;;;;12.82;2.72;;;;;;;48.28;10.19;100406.13;5039975;28;20033;-67
2022/07/22 01:04:50;;;;;;;10.95;2.70;;;;;;;48.34;9.41;100404.78;5056176;28;20017;-68
2022/07/22 01:07:18;;;;;;;11.00;2.30;;;;;;;47.09;9.90;100398.53;5044254;28;20503;-65
2022/07/22 01:09:46;;;;;;;16.58;2.45;;;;;;;45.93;9.18;100401.63;5049343;28;20029;-69
2022/07/22 01:12:13;;;;;;;11.45;2.45;;;;;;;45.98;9.05;100397.22;5044772;28;20041;-67
2022/07/22 01:14:40;;;;;;;17.27;2.88;;;;;;;45.93;8.80;100404.50;5043021;28;20031;-66
2022/07/22 01:17:07;;;;;;;9.15;2.70;;;;;;;45.66;8.47;100405.22;5050792;28;20486;-71
2022/07/22 01:19:36;;;;;;;13.38;2.85;;;;;;;45.27;9.18;100400.06;5034618;28;20064;-70
2022/07/22 01:22:04;;;;;;;14.75;3.00;;;;;;;44.67;9.46;100401.97;5038578;28;20044;-71
2022/07/22 01:24:31;;;;;;;10.20;2.30;;;;;;;44.65;9.32;100398.06;5043200;28;20114;-72
2022/07/22 01:26:59;;;;;;;16.48;2.80;;;;;;;44.62;9.45;100396.22;5027625;28;20060;-71
2022/07/22 01:29:26;;;;;;;18.15;2.72;;;;;;;44.43;9.73;100405.16;5047708;28;20032;-71
2022/07/22 01:31:53;;;;;;;13.15;2.75;;;;;;;44.62;9.48;100387.59;5049662;28;20041;-72
2022/07/22 01:34:20;;;;;;;20.25;2.83;;;;;;;44.43;9.81;100405.16;5044848;28;20388;-72
2022/07/22 01:36:47;;;;;;;18.50;3.20;;;;;;;44.14;9.83;100394.72;5052696;28;20032;-73
2022/07/22 01:39:14;;;;;;;14.00;2.97;;;;;;;44.03;9.85;100393.81;5049910;28;20029;-73
2022/07/22 01:41:40;;;;;;;14.50;3.20;;;;;;;43.76;10.10;100393.00;5043040;28;20047;-71
2022/07/22 01:44:11;;;;;;;21.33;3.10;;;;;;;43.96;10.27;100395.03;5041868;28;20034;-71
2022/07/22 01:46:38;;;;;;;19.05;3.00;;;;;;;43.44;10.73;100400.63;5052294;28;20098;-71
2022/07/22 01:49:05;;;;;;;13.35;2.53;;;;;;;43.11;10.65;100401.75;5047310;28;20021;-72
2022/07/22 01:51:37;;;;;;;17.13;2.63;;;;;;;43.12;11.18;100414.00;5041077;28;20075;-66
2022/07/22 01:54:04;;;;;;;12.35;2.47;;;;;;;42.79;10.76;100412.16;5058144;28;20029;-69
2022/07/22 01:56:32;;;;;;;9.75;2.60;;;;;;;42.56;10.96;100415.97;5036722;28;20041;-69
2022/07/22 01:59:00;;;;;;;23.25;2.92;;;;;;;42.63;11.39;100406.19;5054658;28;20029;-67
2022/07/22 02:01:28;;;;;;;16.02;2.40;;;;;;;42.57;11.18;100397.53;5039223;28;20036;-72
2022/07/22 02:03:55;;;;;;;14.38;2.53;;;;;;;42.75;10.74;100408.72;5044544;28;20068;-66
2022/07/22 02:06:22;;;;;;;19.58;2.83;;;;;;;42.63;11.41;100409.81;5039030;28;20026;-69
2022/07/22 02:08:50;;;;;;;17.95;3.05;;;;;;;42.40;11.70;100417.22;5045958;28;20029;-67
2022/07/22 02:11:40;;;;;;;18.27;2.65;;;;;;;42.23;12.01;100404.69;5036795;28;20036;-66
2022/07/22 02:14:08;;;;;;;12.40;2.38;;;;;;;42.13;11.55;100412.56;5039383;28;20037;-67
2022/07/22 02:16:35;;;;;;;16.45;2.65;;;;;;;41.86;11.87;100412.81;5054722;28;20033;-66
2022/07/22 02:19:06;;;;;;;21.40;3.20;;;;;;;41.73;11.98;100409.41;5038600;28;20025;-66
2022/07/22 02:21:32;;;;;;;14.43;3.20;;;;;;;41.60;12.12;100412.50;5041007;28;20037;-68
2022/07/22 02:24:00;;;;;;;14.63;2.75;;;;;;;41.44;11.69;100419.41;5039778;28;20104;-67
2022/07/22 02:26:27;;;;;;;11.38;2.90;;;;;;;41.25;11.93;100420.81;5042936;28;20034;-67
2022/07/22 02:28:53;;;;;;;11.68;2.60;;;;;;;41.04;12.15;100429.13;5039813;28;20115;-67
2022/07/22 02:31:22;;;;;;;13.00;2.47;;;;;;;40.87;12.22;100427.97;5033696;28;20033;-67
2022/07/22 02:33:50;;;;;;;11.55;2.55;;;;;;;40.80;11.98;100436.84;5039503;28;20124;-67
2022/07/22 02:36:17;;;;;;;14.65;2.50;;;;;;;40.62;12.37;100432.00;5053911;28;20036;-66
2022/07/22 02:38:45;;;;;;;12.48;2.63;;;;;;;40.43;12.55;100439.00;5051822;28;20029;-66
2022/07/22 02:41:12;;;;;;;10.60;2.35;;;;;;;40.37;12.15;100435.97;5044405;28;20496;-66
2022/07/22 02:43:48;;;;;;;13.75;3.30;;;;;;;40.28;12.40;100441.69;5051414;28;20060;-64
2022/07/22 02:46:15;;;;;;;31.63;3.90;;;;;;;40.17;13.09;100438.53;5039491;28;20140;-66
2022/07/22 02:48:42;;;;;;;24.38;3.72;;;;;;;40.05;13.35;100445.22;5040996;28;20017;-66
2022/07/22 02:51:13;;;;;;;27.17;3.38;;;;;;;39.90;13.25;100444.22;5043323;28;20049;-66
2022/07/22 02:53:40;;;;;;;18.60;2.92;;;;;;;39.68;13.59;100433.78;5038990;28;20412;-66
2022/07/22 02:56:08;;;;;;;24.38;4.05;;;;;;;39.75;13.61;100449.75;5050983;28;20037;-67
2022/07/22 02:58:35;;;;;;;29.20;3.75;;;;;;;39.59;13.55;100436.59;5042766;28;20034;-67
2022/07/22 03:01:02;;;;;;;26.70;3.80;;;;;;;39.45;13.55;100442.88;5025970;28;20086;-67
2022/07/22 03:03:32;;;;;;;21.90;3.70;;;;;;;39.38;13.63;100454.56;5050963;28;20044;-66
2022/07/22 03:05:59;;;;;;;20.35;3.20;;;;;;;39.38;13.73;100451.72;5055693;28;20655;-66
2022/07/22 03:08:38;;;;;;;16.33;2.95;;;;;;;39.31;13.54;100455.63;5058284;28;20482;-65
2022/07/22 03:11:06;;;;;;;25.60;3.13;;;;;;;39.25;13.54;100463.19;5045528;28;20060;-66
2022/07/22 03:13:33;;;;;;;20.40;3.17;;;;;;;39.17;13.24;100461.94;5044066;28;20025;-65
2022/07/22 03:16:01;;;;;;;15.23;3.15;;;;;;;39.15;13.68;100465.25;5049072;28;20033;-65
2022/07/22 03:18:27;;;;;;;12.73;2.35;;;;;;;39.16;13.03;100466.81;5049638;28;20028;-65
2022/07/22 03:20:54;;;;;;;16.63;2.70;;;;;;;39.10;13.11;100474.34;5050165;28;20049;-65
2022/07/22 03:23:21;;;;;;;15.48;2.85;;;;;;;39.12;12.93;100477.53;5049729;28;20140;-65
2022/07/22 03:25:48;;;;;;;23.08;2.85;;;;;;;39.05;13.39;100477.00;5049500;28;20479;-65
2022/07/22 03:28:15;;;;;;;19.48;3.00;;;;;;;38.98;13.19;100475.25;5049468;28;20033;-67
2022/07/22 03:30:42;;;;;;;19.60;3.55;;;;;;;38.95;13.18;100479.78;5049636;28;20063;-64
2022/07/22 03:33:08;;;;;;;25.40;4.13;;;;;;;38.79;13.34;100487.78;5052273;28;20400;-65
2022/07/22 03:35:40;;;;;;;20.55;4.10;;;;;;;38.73;13.63;100486.78;5046773;28;20037;-66
2022/07/22 03:38:07;;;;;;;27.38;3.83;;;;;;;38.56;13.52;100491.84;5053286;28;20037;-65
2022/07/22 03:40:35;;;;;;;19.88;3.25;;;;;;;38.49;13.85;100484.41;5052950;28;20132;-66
2022/07/22 03:43:03;;;;;;;22.45;3.85;;;;;;;38.47;13.64;100489.75;5053117;28;20259;-66
2022/07/22 03:45:31;;;;;;;18.33;3.33;;;;;;;38.36;14.19;100492.97;5053357;28;20025;-66
2022/07/22 03:47:58;;;;;;;19.15;3.20;;;;;;;38.28;14.27;100493.72;5052771;28;20115;-66
2022/07/22 03:50:28;;;;;;;25.02;3.63;;;;;;;38.07;14.46;100498.91;5037469;28;20025;-67
2022/07/22 03:52:55;;;;;;;22.38;4.15;;;;;;;38.10;14.54;100497.97;5053016;28;20060;-71
2022/07/22 03:55:22;;;;;;;21.15;3.20;;;;;;;38.18;14.51;100503.38;5053994;28;20074;-69
2022/07/22 03:57:52;;;;;;;16.63;3.30;;;;;;;37.96;14.99;100501.31;5052342;28;20041;-69
2022/07/22 04:00:30;;;;;;;21.40;3.28;;;;;;;37.95;14.91;100502.56;5052333;28;20041;-69
2022/07/22 04:02:58;;;;;;;69.53;4.72;;;;;;;37.78;14.91;100501.13;5039112;28;20115;-69
2022/07/22 04:05:45;;;;;;;19.90;3.90;;;;;;;37.77;14.86;100499.53;5044943;28;20091;-69
2022/07/22 04:08:14;;;;;;;27.27;3.92;;;;;;;37.85;14.83;100500.88;5053180;28;20518;-69
2022/07/22 04:10:40;;;;;;;24.17;3.75;;;;;;;37.82;14.72;100507.47;5037202;28;20120;-69
2022/07/22 04:13:07;;;;;;;21.95;2.83;;;;;;;37.81;14.33;100511.56;5048268;28;20037;-69
2022/07/22 04:15:49;;;;;;;35.15;4.05;;;;;;;37.84;14.37;100515.53;5046232;28;20120;-69
2022/07/22 04:18:17;;;;;;;24.55;3.65;;;;;;;37.67;14.41;100506.34;5021194;28;20037;-69
2022/07/22 04:20:46;;;;;;;17.42;3.15;;;;;;;37.87;13.91;100515.38;5053426;28;20521;-69
2022/07/22 04:23:22;;;;;;;22.02;3.35;;;;;;;37.68;14.22;100517.22;5054915;28;20041;-69
2022/07/22 04:25:56;;;;;;;16.50;2.97;;;;;;;37.77;13.89;100525.06;5024713;28;20052;-69
2022/07/22 04:28:23;;;;;;;19.33;2.95;;;;;;;37.60;13.98;100529.28;5049914;28;20049;-69
2022/07/22 04:30:50;;;;;;;19.25;2.75;;;;;;;37.83;13.34;100519.59;5037640;28;20053;-69
2022/07/22 04:33:16;;;;;;;12.48;2.80;;;;;;;37.71;13.55;100530.50;5045497;28;20048;-69
2022/07/22 04:35:44;;;;;;;18.90;2.80;;;;;;;37.54;13.85;100531.09;5053302;28;20056;-69
2022/07/22 04:38:18;;;;;;;15.73;3.03;;;;;;;37.63;13.48;100542.53;5053394;28;20071;-69
2022/07/22 04:40:55;;;;;;;12.05;3.20;;;;;;;37.45;13.83;100541.06;5054773;28;20045;-69
2022/07/22 04:43:24;;;;;;;15.82;3.35;;;;;;;37.33;13.92;100539.03;5052857;28;20040;-69
2022/07/22 04:45:51;;;;;;;28.65;3.95;;;;;;;37.40;13.53;100544.50;5040754;28;20048;-69
2022/07/22 04:48:19;;;;;;;18.63;3.50;;;;;;;37.35;13.99;100533.72;5033103;28;20048;-69
2022/07/22 04:50:46;;;;;;;16.50;3.30;;;;;;;37.36;14.04;100543.81;5036969;28;20114;-69
2022/07/22 04:53:13;;;;;;;18.65;2.72;;;;;;;37.33;13.96;100543.91;5045307;28;20048;-69
2022/07/22 04:55:40;;;;;;;17.35;2.88;;;;;;;37.58;13.62;100540.28;5044033;28;20032;-69
2022/07/22 04:58:07;;;;;;;15.18;2.53;;;;;;;37.48;13.62;100551.50;5039141;28;20033;-69
2022/07/22 05:00:34;;;;;;;12.23;2.60;;;;;;;37.43;13.81;100548.44;5049347;28;20024;-69
2022/07/22 05:03:01;;;;;;;16.30;2.78;;;;;;;37.42;13.75;100553.34;5038778;28;20060;-69
2022/07/22 05:05:28;;;;;;;15.45;2.80;;;;;;;37.56;13.62;100551.28;5052064;28;20025;-69
2022/07/22 05:07:55;;;;;;;20.17;3.00;;;;;;;37.38;13.49;100535.66;5052593;28;20037;-69
2022/07/22 05:10:22;;;;;;;25.63;2.60;;;;;;;37.40;13.89;100555.03;5035847;28;20438;-69
2022/07/22 05:12:49;;;;;;;10.73;2.28;;;;;;;37.29;13.78;100555.38;5052652;28;20029;-69
2022/07/22 05:15:15;;;;;;;10.52;2.70;;;;;;;37.24;13.67;100553.06;5043085;28;20578;-69
2022/07/22 05:17:43;;;;;;;8.45;2.50;;;;;;;37.37;13.69;100551.06;5044032;28;20049;-69
2022/07/22 05:20:18;;;;;;;15.00;2.97;;;;;;;37.37;13.65;100550.28;5052298;28;20435;-69
2022/07/22 05:22:45;;;;;;;16.20;2.80;;;;;;;37.27;13.82;100552.19;5037350;28;20029;-69
2022/07/22 05:25:16;;;;;;;10.52;2.40;;;;;;;37.45;13.36;100552.41;5037150;28;20033;-69
2022/07/22 05:27:54;;;;;;;11.02;2.47;;;;;;;37.37;13.58;100551.06;5060526;28;20518;-69
2022/07/22 05:30:27;;;;;;;13.00;3.10;;;;;;;37.37;13.54;100551.06;5019154;28;20086;-69
2022/07/22 05:32:54;;;;;;;10.52;3.22;;;;;;;37.35;13.30;100541.44;5041955;28;20029;-69
2022/07/22 05:35:50;;;;;;;16.30;2.60;;;;;;;37.37;13.49;100528.38;5046386;28;20441;-69
2022/07/22 05:38:18;;;;;;;10.50;2.03;;;;;;;37.42;13.29;100530.66;5052139;28;20047;-69
2022/07/22 05:40:45;;;;;;;10.25;2.60;;;;;;;37.19;13.55;100540.25;5019214;28;20032;-69
2022/07/22 05:43:12;;;;;;;7.75;2.55;;;;;;;37.19;13.60;100539.47;5051834;28;20048;-69
2022/07/22 05:45:39;;;;;;;19.08;3.30;;;;;;;37.08;13.83;100533.31;5040744;28;20042;-69
2022/07/22 05:48:06;;;;;;;17.23;3.80;;;;;;;36.95;13.94;100529.69;5046845;28;20056;-69
2022/07/22 05:50:35;;;;;;;14.50;3.45;;;;;;;36.90;14.01;100534.66;5035377;28;20033;-69
2022/07/22 05:53:02;;;;;;;14.30;3.35;;;;;;;36.73;14.44;100535.97;5034761;28;20045;-69
2022/07/22 05:55:29;;;;;;;11.30;3.50;;;;;;;36.66;13.98;100541.03;5041020;28;20562;-69
2022/07/22 05:57:56;;;;;;;14.80;3.42;;;;;;;36.51;14.38;100532.16;5038355;28;20407;-69
2022/07/22 06:00:22;;;;;;;9.65;2.70;;;;;;;36.68;14.21;100538.56;5047977;28;20028;-69
2022/07/22 06:02:50;;;;;;;16.08;2.50;;;;;;;36.70;13.90;100521.91;5036141;28;20487;-69
2022/07/22 06:05:20;;;;;;;12.48;2.55;;;;;;;36.64;14.26;100527.34;5050226;28;20031;-70
2022/07/22 06:07:48;;;;;;;14.18;2.60;;;;;;;36.55;14.43;100530.81;5051464;28;20084;-69
2022/07/22 06:10:25;;;;;;;13.85;2.38;;;;;;;36.63;13.92;100531.41;5035078;28;20125;-69
2022/07/22 06:12:52;;;;;;;13.88;2.17;;;;;;;36.59;14.27;100525.03;5046861;28;20038;-69
2022/07/22 06:15:18;;;;;;;9.80;2.30;;;;;;;36.37;14.26;100524.06;5039839;28;20032;-69
2022/07/22 06:17:46;;;;;;;12.93;2.38;;;;;;;36.52;13.96;100525.25;5039101;28;20466;-69
2022/07/22 06:20:13;;;;;;;15.60;2.55;;;;;;;36.59;13.81;100530.69;5047237;28;20035;-69
2022/07/22 06:22:41;;;;;;;17.85;2.90;;;;;;;36.38;14.65;100517.16;5034625;28;20384;-69
2022/07/22 06:25:08;;;;;;;14.73;3.05;;;;;;;36.20;14.27;100515.59;5044830;28;20021;-69
2022/07/22 06:27:35;;;;;;;16.30;3.38;;;;;;;36.25;14.29;100523.53;5041760;28;20499;-69
2022/07/22 06:30:03;;;;;;;16.05;3.00;;;;;;;36.19;14.53;100525.31;5037074;28;20056;-69
2022/07/22 06:32:30;;;;;;;18.08;3.17;;;;;;;36.16;14.69;100520.56;5031347;28;20037;-69
2022/07/22 06:34:57;;;;;;;17.80;2.75;;;;;;;36.11;14.43;100523.94;5045126;28;20475;-69
2022/07/22 06:37:24;;;;;;;10.20;2.08;;;;;;;36.10;14.10;100513.84;5052388;28;20048;-69
2022/07/22 06:39:50;;;;;;;14.15;2.85;;;;;;;35.96;14.98;100517.84;5038375;28;20400;-69
2022/07/22 06:42:30;;;;;;;11.27;2.50;;;;;;;35.81;14.40;100527.91;5047505;28;20120;-69
2022/07/22 06:45:15;;;;;;;18.05;2.65;;;;;;;35.92;14.55;100510.72;5040589;28;20048;-69
2022/07/22 06:48:02;;;;;;;6.85;1.92;;;;;;;35.95;14.42;100521.13;5034070;28;20124;-69
2022/07/22 06:50:30;;;;;;;8.15;2.30;;;;;;;35.85;14.52;100516.53;5047540;28;20071;-69
2022/07/22 06:52:59;;;;;;;9.93;2.38;;;;;;;35.81;14.63;100515.81;5036838;28;20486;-69
2022/07/22 06:55:26;;;;;;;12.25;2.63;;;;;;;35.65;15.07;100510.94;5041526;28;20095;-69
2022/07/22 06:58:00;;;;;;;7.85;2.50;;;;;;;35.46;15.23;100514.66;5045199;28;20032;-69
2022/07/22 07:00:28;;;;;;;8.10;2.17;;;;;;;35.40;15.20;100508.75;5034447;28;20152;-69
2022/07/22 07:03:22;;;;;;;8.43;2.40;;;;;;;35.37;15.52;100509.59;5037514;28;20050;-69
2022/07/22 07:05:52;;;;;;;15.55;7.07;;;;;;;35.03;15.79;100507.94;5035743;28;20033;-69
2022/07/22 07:08:19;;;;;;;12.82;4.80;;;;;;;35.02;16.14;100516.88;5054746;28;20036;-69
2022/07/22 07:10:47;;;;;;;11.88;3.55;;;;;;;35.05;15.32;100504.69;5038811;28;20031;-69
2022/07/22 07:13:15;;;;;;;11.43;3.40;;;;;;;34.92;15.75;100507.38;5047014;28;20041;-69
2022/07/22 07:15:43;;;;;;;10.60;3.05;;;;;;;34.96;15.44;100502.44;5046310;28;20095;-69
2022/07/22 07:18:10;;;;;;;13.00;3.22;;;;;;;35.02;15.89;100506.38;5023042;28;20040;-69
2022/07/22 07:20:38;;;;;;;9.40;2.97;;;;;;;35.05;15.42;100505.47;5034836;28;20540;-69
2022/07/22 07:23:07;;;;;;;12.18;3.20;;;;;;;35.04;15.16;100508.75;5041635;28;20044;-69
2022/07/22 07:25:39;;;;;;;11.25;3.30;;;;;;;34.84;15.51;100506.72;5043343;28;20594;-69
2022/07/22 07:28:06;;;;;;;10.93;2.83;;;;;;;34.76;15.83;100502.44;5049537;28;20514;-69
2022/07/22 07:30:52;;;;;;;11.75;3.10;;;;;;;34.71;15.70;100496.53;5039234;28;20031;-69
2022/07/22 07:33:19;;;;;;;17.10;4.10;;;;;;;34.64;16.02;100502.31;5054307;28;20061;-69
2022/07/22 07:35:46;;;;;;;17.02;3.53;;;;;;;34.57;16.10;100496.81;5054118;28;20033;-69
2022/07/22 07:38:15;;;;;;;14.05;2.83;;;;;;;34.37;16.44;100491.97;5054364;28;20098;-69
2022/07/22 07:40:43;;;;;;;8.65;2.58;;;;;;;34.20;16.46;100493.88;5037533;28;20037;-69
2022/07/22 07:43:12;;;;;;;10.98;2.70;;;;;;;34.04;16.49;100493.78;5046897;28;20071;-69
2022/07/22 07:45:38;;;;;;;10.98;2.78;;;;;;;33.91;17.00;100487.16;5044146;28;20048;-67
2022/07/22 07:48:06;;;;;;;7.63;2.25;;;;;;;33.97;16.73;100493.13;5070514;28;20079;-69
2022/07/22 07:50:33;;;;;;;14.73;2.38;;;;;;;33.92;16.69;100491.56;5053158;28;20028;-69
2022/07/22 07:53:02;;;;;;;8.35;2.30;;;;;;;33.85;17.57;100500.19;5053381;28;20067;-69
2022/07/22 07:55:29;;;;;;;7.68;2.20;;;;;;;33.55;20.74;100490.56;5049883;28;20035;-70
2022/07/22 07:57:57;;;;;;;9.43;2.75;;;;;;;33.28;19.22;100496.22;5053595;28;20475;-70
2022/07/22 08:00:32;;;;;;;9.73;2.40;;;;;;;33.15;18.96;100500.84;5052920;28;20029;-67
2022/07/22 08:03:03;;;;;;;12.40;2.33;;;;;;;33.21;17.89;100498.31;5085326;28;20040;-68
2022/07/22 08:05:32;;;;;;;11.07;2.55;;;;;;;33.10;18.00;100494.88;5052388;28;20051;-66
2022/07/22 08:08:01;;;;;;;12.18;2.20;;;;;;;33.13;18.42;100492.00;5053467;28;20025;-67
2022/07/22 08:10:28;;;;;;;11.45;2.22;;;;;;;33.21;17.79;100487.06;5053628;28;20557;-66
2022/07/22 08:13:04;;;;;;;4.82;1.90;;;;;;;33.04;18.31;100494.56;5047926;28;20028;-67
2022/07/22 08:15:59;;;;;;;7.93;1.90;;;;;;;32.88;19.96;100483.94;5047889;28;20094;-70
2022/07/22 08:18:27;;;;;;;11.20;2.38;;;;;;;32.84;18.50;100488.00;5036521;28;20037;-68
2022/07/22 08:20:55;;;;;;;6.78;2.10;;;;;;;32.69;18.96;100485.38;5048576;28;20102;-68
2022/07/22 08:23:34;;;;;;;9.32;2.42;;;;;;;32.63;18.61;100480.59;5043831;28;20558;-68
2022/07/22 08:26:02;;;;;;;8.07;2.70;;;;;;;32.63;18.77;100478.59;5039113;28;20041;-69
2022/07/22 08:28:29;;;;;;;14.20;2.63;;;;;;;32.43;19.15;100478.44;5051309;28;20067;-68
2022/07/22 08:30:56;;;;;;;8.00;2.30;;;;;;;32.26;19.62;100490.66;5038773;28;20033;-71
2022/07/22 08:33:23;;;;;;;8.05;1.98;;;;;;;32.08;19.95;100487.22;5040072;28;20036;-70
2022/07/22 08:35:50;;;;;;;8.02;2.35;;;;;;;32.05;19.84;100480.44;5053289;28;20430;-69
2022/07/22 08:38:17;;;;;;;12.18;2.28;;;;;;;32.17;20.67;100482.72;5053096;28;20095;-69
2022/07/22 08:40:45;;;;;;;7.93;2.40;;;;;;;32.26;19.79;100485.03;5053047;28;20128;-68
2022/07/22 08:43:12;;;;;;;8.57;2.55;;;;;;;32.12;20.37;100479.56;5052747;28;20525;-69
2022/07/22 08:45:41;;;;;;;14.75;2.67;;;;;;;31.98;20.61;100482.53;5041645;28;20065;-68
2022/07/22 08:48:08;;;;;;;8.70;2.30;;;;;;;31.87;20.58;100479.81;5048230;28;20025;-68
2022/07/22 08:50:41;;;;;;;9.65;2.17;;;;;;;31.78;20.86;100471.09;5037643;28;20033;-67
2022/07/22 08:53:30;;;;;;;12.13;2.50;;;;;;;31.66;21.20;100466.72;5044202;28;20052;-67
2022/07/22 08:56:04;;;;;;;16.17;2.63;;;;;;;31.64;21.12;100477.59;5047632;28;20120;-67
2022/07/22 08:58:31;;;;;;;14.35;2.42;;;;;;;31.64;21.25;100482.41;5036122;28;20431;-68
2022/07/22 09:01:08;;;;;;;11.18;2.22;;;;;;;31.49;21.52;100476.13;5046752;28;20025;-67
2022/07/22 09:03:50;;;;;;;12.48;2.50;;;;;;;31.38;21.09;100470.56;5042772;28;20473;-67
2022/07/22 09:06:22;;;;;;;10.38;2.60;;;;;;;31.44;21.48;100474.56;5052609;28;20044;-68
2022/07/22 09:08:59;;;;;;;13.40;2.88;;;;;;;31.40;21.37;100470.94;5017169;28;20026;-67
2022/07/22 09:11:44;;;;;;;;;;;;;;;31.64;23.22;100465.56;5046307;28;20074;-67
2022/07/22 09:14:23;;;;;;;9.60;3.10;;;;;;;31.66;26.59;100463.13;5037075;28;19928;-68
2022/07/22 09:16:58;;;;;;;15.70;3.63;;;;;;;31.82;27.90;100477.47;5038314;28;20090;-68
2022/07/22 09:19:34;;;;;;;14.40;3.63;;;;;;;31.67;27.83;100476.75;5041927;28;20075;-68
2022/07/22 09:22:43;;;;;;;21.30;4.20;;;;;;;31.73;27.55;100477.13;5049608;28;20596;-69
2022/07/22 09:25:28;;;;;;;20.33;5.28;;;;;;;31.69;28.22;100470.72;5039549;28;20127;-69
2022/07/22 09:28:24;;;;;;;26.80;6.38;;;;;;;31.56;28.11;100474.03;5032586;28;20511;-69
2022/07/22 09:31:24;;;;;;;26.35;6.13;;;;;;;31.73;26.84;100485.56;5051266;28;20059;-69
2022/07/22 09:33:54;;;;;;;31.50;7.60;;;;;;;31.78;26.38;100473.91;5043549;28;20029;-68
2022/07/22 09:36:23;;;;;;;29.50;6.80;;;;;;;31.72;26.62;100478.31;5051936;28;20068;-68
2022/07/22 09:38:52;;;;;;;29.60;7.70;;;;;;;31.57;26.08;100466.41;5047313;28;20364;-69
2022/07/22 09:41:19;;;;;;;33.30;7.40;;;;;;;31.36;26.36;100458.94;5040189;28;20049;-68
2022/07/22 09:43:46;;;;;;;25.63;7.35;;;;;;;31.23;26.30;100461.44;5039535;28;20447;-68
2022/07/22 09:46:14;;;;;;;37.42;7.10;;;;;;;31.09;26.60;100469.97;5049367;28;20201;-68
2022/07/22 09:49:06;;;;;;;39.97;7.70;;;;;;;30.87;27.99;100469.25;5051815;28;20043;-68
2022/07/22 09:51:42;;;;;;;38.65;8.00;;;;;;;30.71;27.50;100465.38;5051784;28;20487;-67
2022/07/22 09:54:19;;;;;;;33.30;7.63;;;;;;;30.61;28.53;100472.59;5035342;28;20184;-68
2022/07/22 09:56:46;;;;;;;29.92;7.65;;;;;;;30.47;28.74;100462.22;5047883;28;20036;-68
2022/07/22 09:59:17;;;;;;;27.85;8.18;;;;;;;30.39;30.57;100460.66;5041094;28;20079;-68
2022/07/22 10:01:55;;;;;;;35.70;8.82;;;;;;;30.25;33.21;100464.31;5038574;28;20041;-68
2022/07/22 10:04:24;;;;;;;25.23;7.85;;;;;;;30.15;35.21;100476.34;5048303;28;20112;-68
2022/07/22 10:06:54;;;;;;;25.65;6.93;;;;;;;30.06;36.69;100475.97;5047018;28;20029;-68
2022/07/22 10:09:24;;;;;;;34.47;7.85;;;;;;;30.02;38.79;100472.34;5044749;28;20040;-68
2022/07/22 10:11:53;;;;;;;25.45;7.30;;;;;;;29.93;40.40;100480.34;5051364;28;20442;-68
2022/07/22 10:14:24;;;;;;;32.15;7.32;;;;;;;29.83;41.31;100472.78;5057381;28;20031;-68
2022/07/22 10:16:54;;;;;;;32.13;7.53;;;;;;;29.70;40.99;100470.38;5029823;28;20039;-68
2022/07/22 10:19:21;;;;;;;32.35;8.32;;;;;;;29.72;41.07;100478.38;5039858;28;20176;-68
2022/07/22 10:21:48;;;;;;;28.15;7.82;;;;;;;29.72;41.16;100479.19;5039932;28;20045;-68
2022/07/22 10:24:23;;;;;;;27.25;8.60;;;;;;;29.69;41.58;100482.78;5047191;28;20025;-67
2022/07/22 10:26:58;;;;;;;23.92;8.55;;;;;;;29.70;42.14;100470.38;5021397;28;20065;-67
2022/07/22 10:29:47;;;;;;;27.70;8.20;;;;;;;29.68;42.45;100472.78;5052350;28;20106;-67
2022/07/22 10:32:16;;;;;;;30.42;9.00;;;;;;;29.68;42.74;100478.38;5036585;28;20034;-67
2022/07/22 10:35:06;;;;;;;30.90;9.02;;;;;;;29.61;43.89;100478.38;5044390;28;20395;-67
2022/07/22 10:37:38;;;;;;;26.88;8.48;;;;;;;29.56;44.01;100486.38;5051724;28;20071;-67
2022/07/22 10:40:15;;;;;;;28.25;8.40;;;;;;;29.57;44.65;100485.97;5037499;28;20048;-66
2022/07/22 10:43:00;;;;;;;27.92;7.85;;;;;;;29.48;44.81;100496.78;5048604;28;20103;-66
2022/07/22 10:45:27;;;;;;;;;;;;;;;29.47;44.76;100492.38;5042092;28;20094;-66
2022/07/22 10:47:55;;;;;;;29.77;9.02;;;;;;;29.52;44.97;100494.78;5039232;28;20030;-67
2022/07/22 10:50:41;;;;;;;30.65;8.48;;;;;;;29.51;45.00;100490.38;5048944;28;20040;-67
2022/07/22 10:53:20;;;;;;;37.35;9.30;;;;;;;29.53;45.40;100492.78;5039281;28;20025;-67
2022/07/22 10:56:13;;;;;;;27.20;8.60;;;;;;;29.58;44.87;100495.19;5039793;28;20103;-68
2022/07/22 10:58:43;;;;;;;29.50;8.93;;;;;;;29.51;45.74;100484.78;5048874;28;20045;-68
2022/07/22 11:01:12;;;;;;;34.08;8.55;;;;;;;29.42;45.74;100492.72;5039395;28;20079;-68
2022/07/22 11:03:42;;;;;;;31.67;8.70;;;;;;;29.45;47.26;100483.56;5044063;28;20037;-68
2022/07/22 11:06:27;;;;;;;26.15;7.65;;;;;;;29.54;47.93;100483.97;5067675;28;20147;-68
2022/07/22 11:09:00;;;;;;;29.42;7.85;;;;;;;29.49;48.29;100481.59;5035989;28;20039;-68
2022/07/22 11:11:43;;;;;;;31.98;8.30;;;;;;;29.42;49.16;100481.53;5050893;28;20498;-68
2022/07/22 11:14:18;;;;;;;26.70;8.18;;;;;;;29.41;49.31;100480.72;5035634;28;20041;-68
2022/07/22 11:16:47;;;;;;;32.33;8.20;;;;;;;29.40;49.71;100489.53;5035964;28;20033;-68
2022/07/22 11:19:15;;;;;;;28.17;7.85;;;;;;;29.35;50.99;100482.34;5052113;28;20420;-68
2022/07/22 11:21:42;;;;;;;26.08;8.43;;;;;;;29.33;51.54;100495.94;5039137;28;20037;-67
2022/07/22 11:24:09;;;;;;;30.27;7.65;;;;;;;29.27;52.40;100486.34;5047254;28;20104;-67
2022/07/22 11:26:45;;;;;;;27.42;8.02;;;;;;;29.25;53.66;100493.50;5017633;28;20029;-69
2022/07/22 11:29:25;;;;;;;29.75;8.40;;;;;;;29.25;53.87;100493.50;5043230;28;20429;-67
2022/07/22 11:31:52;;;;;;;28.45;8.07;;;;;;;29.26;54.38;100492.31;5044817;28;20033;-67
2022/07/22 11:34:20;;;;;;;24.95;7.93;;;;;;;29.27;55.06;100496.75;5042574;28;20074;-68